sensor_id;sensor_type;location;lat;lon;timestamp;temperature;humidity
20233;DHT22;37438;55.674;13.074;2023-09-30T00:01:25;16.40;99.90
20233;DHT22;37438;55.674;13.074;2023-09-30T00:04:31;16.50;99.90
20233;DHT22;37438;55.674;13.074;2023-09-30T00:07:36;16.50;99.90
20233;DHT22;37438;55.674;13.074;2023-09-30T00:10:41;16.40;99.90
20233;DHT22;37438;55.674;13.074;2023-09-30T00:13:45;16.40;99.90
20233;DHT22;37438;55.674;13.074;2023-09-30T00:16:49;16.50;99.90
20233;DHT22;37438;55.674;13.074;2023-09-30T00:19:55;16.40;99.90
20233;DHT22;37438;55.674;13.074;2023-09-30T00:22:59;16.40;99.90
20233;DHT22;37438;55.674;13.074;2023-09-30T00:26:04;16.40;99.90
20233;DHT22;37438;55.674;13.074;2023-09-30T00:29:09;16.30;99.90
20233;DHT22;37438;55.674;13.074;2023-09-30T00:32:14;16.30;99.90
20233;DHT22;37438;55.674;13.074;2023-09-30T00:35:18;16.30;99.90
20233;DHT22;37438;55.674;13.074;2023-09-30T00:38:22;16.20;99.90
20233;DHT22;37438;55.674;13.074;2023-09-30T00:41:28;16.30;99.90
20233;DHT22;37438;55.674;13.074;2023-09-30T00:44:33;16.20;99.90
20233;DHT22;37438;55.674;13.074;2023-09-30T00:47:38;16.20;99.90
20233;DHT22;37438;55.674;13.074;2023-09-30T00:50:42;16.20;99.90
20233;DHT22;37438;55.674;13.074;2023-09-30T00:53:46;16.20;99.90
20233;DHT22;37438;55.674;13.074;2023-09-30T00:56:50;16.10;99.90
20233;DHT22;37438;55.674;13.074;2023-09-30T00:59:55;16.20;99.90
20233;DHT22;37438;55.674;13.074;2023-09-30T01:03:00;16.20;99.90
20233;DHT22;37438;55.674;13.074;2023-09-30T01:06:08;16.20;99.90
20233;DHT22;37438;55.674;13.074;2023-09-30T01:09:14;16.00;99.90
20233;DHT22;37438;55.674;13.074;2023-09-30T01:12:18;16.10;99.90
20233;DHT22;37438;55.674;13.074;2023-09-30T01:15:23;16.10;99.90
20233;DHT22;37438;55.674;13.074;2023-09-30T01:18:28;16.00;99.90
20233;DHT22;37438;55.674;13.074;2023-09-30T01:21:33;16.00;99.90
20233;DHT22;37438;55.674;13.074;2023-09-30T01:24:39;16.00;99.90
20233;DHT22;37438;55.674;13.074;2023-09-30T01:27:44;16.00;99.90
20233;DHT22;37438;55.674;13.074;2023-09-30T01:30:49;15.90;99.90
20233;DHT22;37438;55.674;13.074;2023-09-30T01:33:53;15.90;99.90
20233;DHT22;37438;55.674;13.074;2023-09-30T01:37:01;16.00;99.90
20233;DHT22;37438;55.674;13.074;2023-09-30T01:40:05;16.00;99.90
20233;DHT22;37438;55.674;13.074;2023-09-30T01:43:12;16.00;99.90
20233;DHT22;37438;55.674;13.074;2023-09-30T01:46:18;16.00;99.90
20233;DHT22;37438;55.674;13.074;2023-09-30T01:49:22;16.00;99.90
20233;DHT22;37438;55.674;13.074;2023-09-30T01:52:32;15.90;99.90
20233;DHT22;37438;55.674;13.074;2023-09-30T01:55:36;15.90;99.90
20233;DHT22;37438;55.674;13.074;2023-09-30T01:58:40;16.00;99.90
20233;DHT22;37438;55.674;13.074;2023-09-30T02:01:44;16.10;99.90
20233;DHT22;37438;55.674;13.074;2023-09-30T02:04:50;16.10;99.90
20233;DHT22;37438;55.674;13.074;2023-09-30T02:07:54;16.20;99.90
20233;DHT22;37438;55.674;13.074;2023-09-30T02:10:59;16.20;99.90
20233;DHT22;37438;55.674;13.074;2023-09-30T02:14:04;16.20;99.90
20233;DHT22;37438;55.674;13.074;2023-09-30T02:17:09;16.20;99.90
20233;DHT22;37438;55.674;13.074;2023-09-30T02:20:14;16.10;99.90
20233;DHT22;37438;55.674;13.074;2023-09-30T02:23:22;16.10;99.90
20233;DHT22;37438;55.674;13.074;2023-09-30T02:26:29;16.20;99.90
20233;DHT22;37438;55.674;13.074;2023-09-30T02:29:33;16.10;99.90
20233;DHT22;37438;55.674;13.074;2023-09-30T02:32:38;16.10;99.90
20233;DHT22;37438;55.674;13.074;2023-09-30T02:35:44;16.10;99.90
20233;DHT22;37438;55.674;13.074;2023-09-30T02:38:50;16.10;99.90
20233;DHT22;37438;55.674;13.074;2023-09-30T02:41:54;16.10;99.90
20233;DHT22;37438;55.674;13.074;2023-09-30T02:45:02;16.20;99.90
20233;DHT22;37438;55.674;13.074;2023-09-30T02:48:06;16.10;99.90
20233;DHT22;37438;55.674;13.074;2023-09-30T02:51:12;16.10;99.90
20233;DHT22;37438;55.674;13.074;2023-09-30T02:54:17;16.20;99.90
20233;DHT22;37438;55.674;13.074;2023-09-30T02:57:23;16.10;99.90
20233;DHT22;37438;55.674;13.074;2023-09-30T03:00:27;16.10;99.90
20233;DHT22;37438;55.674;13.074;2023-09-30T03:03:39;16.20;99.90
20233;DHT22;37438;55.674;13.074;2023-09-30T03:06:44;16.10;99.90
20233;DHT22;37438;55.674;13.074;2023-09-30T03:09:49;16.10;99.90
20233;DHT22;37438;55.674;13.074;2023-09-30T03:12:54;16.10;99.90
20233;DHT22;37438;55.674;13.074;2023-09-30T03:15:59;16.20;99.90
20233;DHT22;37438;55.674;13.074;2023-09-30T03:19:05;16.20;99.90
20233;DHT22;37438;55.674;13.074;2023-09-30T03:22:10;16.30;99.90
20233;DHT22;37438;55.674;13.074;2023-09-30T03:25:16;16.30;99.90
20233;DHT22;37438;55.674;13.074;2023-09-30T03:28:25;16.30;99.90
20233;DHT22;37438;55.674;13.074;2023-09-30T03:31:29;16.30;99.90
20233;DHT22;37438;55.674;13.074;2023-09-30T03:34:34;16.40;99.90
20233;DHT22;37438;55.674;13.074;2023-09-30T03:37:40;16.40;99.90
20233;DHT22;37438;55.674;13.074;2023-09-30T03:40:45;16.40;99.90
20233;DHT22;37438;55.674;13.074;2023-09-30T03:43:54;16.40;99.90
20233;DHT22;37438;55.674;13.074;2023-09-30T03:46:58;16.30;99.90
20233;DHT22;37438;55.674;13.074;2023-09-30T03:50:03;16.40;99.90
20233;DHT22;37438;55.674;13.074;2023-09-30T03:53:08;16.40;99.90
20233;DHT22;37438;55.674;13.074;2023-09-30T03:56:13;16.30;99.90
20233;DHT22;37438;55.674;13.074;2023-09-30T03:59:17;16.30;99.90
20233;DHT22;37438;55.674;13.074;2023-09-30T04:02:23;16.20;99.90
20233;DHT22;37438;55.674;13.074;2023-09-30T04:05:27;16.30;99.90
20233;DHT22;37438;55.674;13.074;2023-09-30T04:08:36;16.30;99.90
20233;DHT22;37438;55.674;13.074;2023-09-30T04:11:41;16.20;99.90
20233;DHT22;37438;55.674;13.074;2023-09-30T04:14:46;16.20;99.90
20233;DHT22;37438;55.674;13.074;2023-09-30T04:17:50;16.20;99.90
20233;DHT22;37438;55.674;13.074;2023-09-30T04:20:56;16.10;99.90
20233;DHT22;37438;55.674;13.074;2023-09-30T04:24:01;16.20;99.90
20233;DHT22;37438;55.674;13.074;2023-09-30T04:27:05;16.20;99.90
20233;DHT22;37438;55.674;13.074;2023-09-30T04:30:11;16.20;99.90
20233;DHT22;37438;55.674;13.074;2023-09-30T04:33:16;16.30;99.90
20233;DHT22;37438;55.674;13.074;2023-09-30T04:36:24;16.30;99.90
20233;DHT22;37438;55.674;13.074;2023-09-30T04:39:29;16.40;99.90
20233;DHT22;37438;55.674;13.074;2023-09-30T04:42:34;16.30;99.90
20233;DHT22;37438;55.674;13.074;2023-09-30T04:45:40;16.40;99.90
20233;DHT22;37438;55.674;13.074;2023-09-30T04:48:44;16.30;99.90
20233;DHT22;37438;55.674;13.074;2023-09-30T04:51:53;16.30;99.90
20233;DHT22;37438;55.674;13.074;2023-09-30T04:54:57;16.40;99.90
20233;DHT22;37438;55.674;13.074;2023-09-30T04:58:02;16.40;99.90
20233;DHT22;37438;55.674;13.074;2023-09-30T05:01:06;16.30;99.90
20233;DHT22;37438;55.674;13.074;2023-09-30T05:04:13;16.20;99.90
20233;DHT22;37438;55.674;13.074;2023-09-30T05:07:19;16.20;99.90
20233;DHT22;37438;55.674;13.074;2023-09-30T05:10:24;16.20;99.90
20233;DHT22;37438;55.674;13.074;2023-09-30T05:13:29;16.10;99.90
20233;DHT22;37438;55.674;13.074;2023-09-30T05:16:33;16.20;99.90
20233;DHT22;37438;55.674;13.074;2023-09-30T05:19:37;16.20;99.90
20233;DHT22;37438;55.674;13.074;2023-09-30T05:22:42;16.20;99.90
20233;DHT22;37438;55.674;13.074;2023-09-30T05:25:49;16.20;99.90
20233;DHT22;37438;55.674;13.074;2023-09-30T05:28:54;16.10;99.90
20233;DHT22;37438;55.674;13.074;2023-09-30T05:31:58;16.30;99.90
20233;DHT22;37438;55.674;13.074;2023-09-30T05:35:03;16.30;99.90
20233;DHT22;37438;55.674;13.074;2023-09-30T05:38:09;16.20;99.90
20233;DHT22;37438;55.674;13.074;2023-09-30T05:41:14;16.20;99.90
20233;DHT22;37438;55.674;13.074;2023-09-30T05:44:18;16.30;99.90
20233;DHT22;37438;55.674;13.074;2023-09-30T05:47:23;16.30;99.90
20233;DHT22;37438;55.674;13.074;2023-09-30T05:50:27;16.30;99.90
20233;DHT22;37438;55.674;13.074;2023-09-30T05:53:31;16.30;99.90
20233;DHT22;37438;55.674;13.074;2023-09-30T05:56:37;16.40;99.90
20233;DHT22;37438;55.674;13.074;2023-09-30T05:59:41;16.50;99.90
20233;DHT22;37438;55.674;13.074;2023-09-30T06:02:47;16.40;99.90
20233;DHT22;37438;55.674;13.074;2023-09-30T06:05:52;16.60;99.90
20233;DHT22;37438;55.674;13.074;2023-09-30T06:08:57;16.60;99.90
20233;DHT22;37438;55.674;13.074;2023-09-30T06:12:02;16.70;99.90
20233;DHT22;37438;55.674;13.074;2023-09-30T06:15:10;16.60;99.90
20233;DHT22;37438;55.674;13.074;2023-09-30T06:18:14;16.60;99.90
20233;DHT22;37438;55.674;13.074;2023-09-30T06:21:20;16.70;99.90
20233;DHT22;37438;55.674;13.074;2023-09-30T06:24:28;16.50;99.90
20233;DHT22;37438;55.674;13.074;2023-09-30T06:27:32;16.60;99.90
20233;DHT22;37438;55.674;13.074;2023-09-30T06:30:37;16.60;99.90
20233;DHT22;37438;55.674;13.074;2023-09-30T06:33:41;16.70;99.90
20233;DHT22;37438;55.674;13.074;2023-09-30T06:36:46;16.80;99.90
20233;DHT22;37438;55.674;13.074;2023-09-30T06:39:50;16.80;99.90
20233;DHT22;37438;55.674;13.074;2023-09-30T06:42:55;16.90;99.90
20233;DHT22;37438;55.674;13.074;2023-09-30T06:46:07;16.90;99.90
20233;DHT22;37438;55.674;13.074;2023-09-30T06:49:14;17.00;99.90
20233;DHT22;37438;55.674;13.074;2023-09-30T06:52:19;17.10;99.90
20233;DHT22;37438;55.674;13.074;2023-09-30T06:55:23;17.10;99.90
20233;DHT22;37438;55.674;13.074;2023-09-30T06:58:29;17.20;99.90
20233;DHT22;37438;55.674;13.074;2023-09-30T07:01:34;17.30;99.90
20233;DHT22;37438;55.674;13.074;2023-09-30T07:04:38;17.20;99.90
20233;DHT22;37438;55.674;13.074;2023-09-30T07:07:43;17.40;99.90
20233;DHT22;37438;55.674;13.074;2023-09-30T07:10:48;17.40;99.90
20233;DHT22;37438;55.674;13.074;2023-09-30T07:13:57;17.40;99.90
20233;DHT22;37438;55.674;13.074;2023-09-30T07:17:01;17.40;99.90
20233;DHT22;37438;55.674;13.074;2023-09-30T07:20:08;17.50;99.90
20233;DHT22;37438;55.674;13.074;2023-09-30T07:23:13;17.60;99.90
20233;DHT22;37438;55.674;13.074;2023-09-30T07:26:24;17.60;99.90
20233;DHT22;37438;55.674;13.074;2023-09-30T07:29:28;17.60;99.90
20233;DHT22;37438;55.674;13.074;2023-09-30T07:32:33;17.70;99.90
20233;DHT22;37438;55.674;13.074;2023-09-30T07:35:37;17.80;99.90
20233;DHT22;37438;55.674;13.074;2023-09-30T07:38:43;18.00;99.90
20233;DHT22;37438;55.674;13.074;2023-09-30T07:41:47;18.10;99.90
20233;DHT22;37438;55.674;13.074;2023-09-30T07:44:51;17.90;99.90
20233;DHT22;37438;55.674;13.074;2023-09-30T07:47:55;18.00;99.90
20233;DHT22;37438;55.674;13.074;2023-09-30T07:51:00;17.90;99.90
20233;DHT22;37438;55.674;13.074;2023-09-30T07:54:05;18.10;99.90
20233;DHT22;37438;55.674;13.074;2023-09-30T07:57:29;18.20;99.90
20233;DHT22;37438;55.674;13.074;2023-09-30T08:00:34;18.10;99.90
20233;DHT22;37438;55.674;13.074;2023-09-30T08:03:38;18.10;99.90
20233;DHT22;37438;55.674;13.074;2023-09-30T08:06:43;18.40;99.90
20233;DHT22;37438;55.674;13.074;2023-09-30T08:09:48;18.50;99.90
20233;DHT22;37438;55.674;13.074;2023-09-30T08:12:52;18.40;99.90
20233;DHT22;37438;55.674;13.074;2023-09-30T08:15:57;18.60;99.90
20233;DHT22;37438;55.674;13.074;2023-09-30T08:19:01;18.80;99.90
20233;DHT22;37438;55.674;13.074;2023-09-30T08:22:05;18.50;99.90
20233;DHT22;37438;55.674;13.074;2023-09-30T08:25:11;18.50;99.90
20233;DHT22;37438;55.674;13.074;2023-09-30T08:28:16;18.60;99.90
20233;DHT22;37438;55.674;13.074;2023-09-30T08:31:20;18.20;99.90
20233;DHT22;37438;55.674;13.074;2023-09-30T08:34:26;18.20;99.90
20233;DHT22;37438;55.674;13.074;2023-09-30T08:37:30;18.30;99.90
20233;DHT22;37438;55.674;13.074;2023-09-30T08:40:36;18.30;99.90
20233;DHT22;37438;55.674;13.074;2023-09-30T08:43:42;18.40;99.90
20233;DHT22;37438;55.674;13.074;2023-09-30T08:46:46;18.50;99.90
20233;DHT22;37438;55.674;13.074;2023-09-30T08:49:51;18.60;99.90
20233;DHT22;37438;55.674;13.074;2023-09-30T08:53:00;18.80;99.90
20233;DHT22;37438;55.674;13.074;2023-09-30T08:56:08;19.20;99.90
20233;DHT22;37438;55.674;13.074;2023-09-30T08:59:14;19.30;99.90
20233;DHT22;37438;55.674;13.074;2023-09-30T09:02:19;19.40;99.90
20233;DHT22;37438;55.674;13.074;2023-09-30T09:05:23;19.20;99.90
20233;DHT22;37438;55.674;13.074;2023-09-30T09:08:28;19.20;99.90
20233;DHT22;37438;55.674;13.074;2023-09-30T09:11:36;19.40;99.90
20233;DHT22;37438;55.674;13.074;2023-09-30T09:14:41;19.40;99.90
20233;DHT22;37438;55.674;13.074;2023-09-30T09:17:46;19.40;99.90
20233;DHT22;37438;55.674;13.074;2023-09-30T09:20:51;19.30;99.90
20233;DHT22;37438;55.674;13.074;2023-09-30T09:24:11;19.40;99.90
20233;DHT22;37438;55.674;13.074;2023-09-30T09:27:32;19.80;99.90
20233;DHT22;37438;55.674;13.074;2023-09-30T09:30:38;20.10;99.90
20233;DHT22;37438;55.674;13.074;2023-09-30T09:33:42;19.80;99.90
20233;DHT22;37438;55.674;13.074;2023-09-30T09:36:47;19.80;99.90
20233;DHT22;37438;55.674;13.074;2023-09-30T09:39:52;20.40;99.90
20233;DHT22;37438;55.674;13.074;2023-09-30T09:42:58;21.00;99.90
20233;DHT22;37438;55.674;13.074;2023-09-30T09:46:04;20.90;99.90
20233;DHT22;37438;55.674;13.074;2023-09-30T09:49:11;20.20;99.90
20233;DHT22;37438;55.674;13.074;2023-09-30T09:52:16;19.70;99.90
20233;DHT22;37438;55.674;13.074;2023-09-30T09:55:22;20.00;99.90
20233;DHT22;37438;55.674;13.074;2023-09-30T09:58:27;19.60;99.90
20233;DHT22;37438;55.674;13.074;2023-09-30T10:01:35;19.20;99.90
20233;DHT22;37438;55.674;13.074;2023-09-30T10:04:41;19.60;99.90
20233;DHT22;37438;55.674;13.074;2023-09-30T10:07:54;20.30;99.90
20233;DHT22;37438;55.674;13.074;2023-09-30T10:10:59;19.80;99.90
20233;DHT22;37438;55.674;13.074;2023-09-30T10:14:03;19.30;99.90
20233;DHT22;37438;55.674;13.074;2023-09-30T10:17:08;19.60;99.90
20233;DHT22;37438;55.674;13.074;2023-09-30T10:20:12;19.50;99.90
20233;DHT22;37438;55.674;13.074;2023-09-30T10:26:29;19.80;99.90
20233;DHT22;37438;55.674;13.074;2023-09-30T10:29:40;19.30;99.90
20233;DHT22;37438;55.674;13.074;2023-09-30T10:36:06;19.60;99.90
20233;DHT22;37438;55.674;13.074;2023-09-30T10:39:13;19.30;99.90
20233;DHT22;37438;55.674;13.074;2023-09-30T10:43:04;19.60;99.90
20233;DHT22;37438;55.674;13.074;2023-09-30T10:45:43;19.30;99.90
20233;DHT22;37438;55.674;13.074;2023-09-30T10:48:49;19.90;99.90
20233;DHT22;37438;55.674;13.074;2023-09-30T10:51:54;20.90;99.90
20233;DHT22;37438;55.674;13.074;2023-09-30T10:55:04;20.20;99.90
20233;DHT22;37438;55.674;13.074;2023-09-30T10:58:09;19.90;99.90
20233;DHT22;37438;55.674;13.074;2023-09-30T11:01:17;20.70;99.90
20233;DHT22;37438;55.674;13.074;2023-09-30T11:04:21;19.80;99.90
20233;DHT22;37438;55.674;13.074;2023-09-30T11:07:26;19.40;99.90
20233;DHT22;37438;55.674;13.074;2023-09-30T11:10:32;20.20;99.90
20233;DHT22;37438;55.674;13.074;2023-09-30T11:13:36;19.50;99.90
20233;DHT22;37438;55.674;13.074;2023-09-30T11:16:41;19.60;99.90
20233;DHT22;37438;55.674;13.074;2023-09-30T11:19:47;20.10;99.90
20233;DHT22;37438;55.674;13.074;2023-09-30T11:22:52;19.70;99.90
20233;DHT22;37438;55.674;13.074;2023-09-30T11:25:56;20.10;99.90
20233;DHT22;37438;55.674;13.074;2023-09-30T11:29:05;20.60;99.90
20233;DHT22;37438;55.674;13.074;2023-09-30T11:32:09;19.90;99.90
20233;DHT22;37438;55.674;13.074;2023-09-30T11:35:26;19.30;99.90
20233;DHT22;37438;55.674;13.074;2023-09-30T11:38:32;18.90;99.90
20233;DHT22;37438;55.674;13.074;2023-09-30T11:41:38;19.10;99.90
20233;DHT22;37438;55.674;13.074;2023-09-30T11:44:46;19.90;99.90
20233;DHT22;37438;55.674;13.074;2023-09-30T11:47:51;20.90;99.90
20233;DHT22;37438;55.674;13.074;2023-09-30T11:50:56;19.90;99.90
20233;DHT22;37438;55.674;13.074;2023-09-30T11:54:03;19.50;99.90
20233;DHT22;37438;55.674;13.074;2023-09-30T11:57:18;20.60;99.90
20233;DHT22;37438;55.674;13.074;2023-09-30T12:00:22;20.80;99.90
20233;DHT22;37438;55.674;13.074;2023-09-30T12:03:28;21.00;99.90
20233;DHT22;37438;55.674;13.074;2023-09-30T12:06:33;20.60;99.90
20233;DHT22;37438;55.674;13.074;2023-09-30T12:09:39;19.90;99.90
20233;DHT22;37438;55.674;13.074;2023-09-30T12:12:45;21.00;99.90
20233;DHT22;37438;55.674;13.074;2023-09-30T12:15:49;20.80;99.90
20233;DHT22;37438;55.674;13.074;2023-09-30T12:18:57;20.20;99.90
20233;DHT22;37438;55.674;13.074;2023-09-30T12:22:02;20.10;99.90
20233;DHT22;37438;55.674;13.074;2023-09-30T12:25:06;21.30;99.90
20233;DHT22;37438;55.674;13.074;2023-09-30T12:28:13;21.30;99.90
20233;DHT22;37438;55.674;13.074;2023-09-30T12:31:19;20.00;99.90
20233;DHT22;37438;55.674;13.074;2023-09-30T12:34:25;19.30;99.90
20233;DHT22;37438;55.674;13.074;2023-09-30T12:37:31;19.00;99.90
20233;DHT22;37438;55.674;13.074;2023-09-30T12:40:36;18.90;99.90
20233;DHT22;37438;55.674;13.074;2023-09-30T12:43:40;18.70;99.90
20233;DHT22;37438;55.674;13.074;2023-09-30T12:46:45;18.20;99.90
20233;DHT22;37438;55.674;13.074;2023-09-30T12:49:51;17.90;99.90
20233;DHT22;37438;55.674;13.074;2023-09-30T12:52:56;17.60;99.90
20233;DHT22;37438;55.674;13.074;2023-09-30T12:56:00;17.70;99.90
20233;DHT22;37438;55.674;13.074;2023-09-30T12:59:05;18.00;99.90
20233;DHT22;37438;55.674;13.074;2023-09-30T13:02:09;18.20;99.90
20233;DHT22;37438;55.674;13.074;2023-09-30T13:05:14;18.70;99.90
20233;DHT22;37438;55.674;13.074;2023-09-30T13:08:18;19.70;99.90
20233;DHT22;37438;55.674;13.074;2023-09-30T13:11:23;20.30;99.90
20233;DHT22;37438;55.674;13.074;2023-09-30T13:14:27;20.40;99.90
20233;DHT22;37438;55.674;13.074;2023-09-30T13:17:32;20.50;99.90
20233;DHT22;37438;55.674;13.074;2023-09-30T13:20:37;19.90;99.90
20233;DHT22;37438;55.674;13.074;2023-09-30T13:23:41;19.40;99.90
20233;DHT22;37438;55.674;13.074;2023-09-30T13:26:46;19.40;99.90
20233;DHT22;37438;55.674;13.074;2023-09-30T13:29:51;19.00;99.90
20233;DHT22;37438;55.674;13.074;2023-09-30T13:32:55;18.90;99.90
20233;DHT22;37438;55.674;13.074;2023-09-30T13:36:00;19.40;99.90
20233;DHT22;37438;55.674;13.074;2023-09-30T13:39:06;19.60;99.90
20233;DHT22;37438;55.674;13.074;2023-09-30T13:42:11;18.90;99.90
20233;DHT22;37438;55.674;13.074;2023-09-30T13:45:15;19.70;99.90
20233;DHT22;37438;55.674;13.074;2023-09-30T13:48:23;20.10;99.90
20233;DHT22;37438;55.674;13.074;2023-09-30T13:51:29;20.50;99.90
20233;DHT22;37438;55.674;13.074;2023-09-30T13:54:33;20.20;99.90
20233;DHT22;37438;55.674;13.074;2023-09-30T13:57:37;20.20;99.90
20233;DHT22;37438;55.674;13.074;2023-09-30T14:00:46;20.20;99.90
20233;DHT22;37438;55.674;13.074;2023-09-30T14:03:50;20.40;99.90
20233;DHT22;37438;55.674;13.074;2023-09-30T14:06:59;20.60;99.90
20233;DHT22;37438;55.674;13.074;2023-09-30T14:10:04;19.90;99.90
20233;DHT22;37438;55.674;13.074;2023-09-30T14:13:10;19.90;99.90
20233;DHT22;37438;55.674;13.074;2023-09-30T14:16:14;20.10;99.90
20233;DHT22;37438;55.674;13.074;2023-09-30T14:19:19;20.50;99.90
20233;DHT22;37438;55.674;13.074;2023-09-30T14:22:23;20.10;99.90
20233;DHT22;37438;55.674;13.074;2023-09-30T14:25:27;20.10;99.90
20233;DHT22;37438;55.674;13.074;2023-09-30T14:28:31;19.90;99.90
20233;DHT22;37438;55.674;13.074;2023-09-30T14:31:36;19.30;99.90
20233;DHT22;37438;55.674;13.074;2023-09-30T14:34:41;19.00;99.90
20233;DHT22;37438;55.674;13.074;2023-09-30T14:37:45;18.90;99.90
20233;DHT22;37438;55.674;13.074;2023-09-30T14:40:49;19.20;99.90
20233;DHT22;37438;55.674;13.074;2023-09-30T14:43:54;19.40;99.90
20233;DHT22;37438;55.674;13.074;2023-09-30T14:46:59;19.50;99.90
20233;DHT22;37438;55.674;13.074;2023-09-30T14:50:05;19.60;99.90
20233;DHT22;37438;55.674;13.074;2023-09-30T14:53:10;19.80;99.90
20233;DHT22;37438;55.674;13.074;2023-09-30T14:56:15;19.80;99.90
20233;DHT22;37438;55.674;13.074;2023-09-30T14:59:20;19.90;99.90
20233;DHT22;37438;55.674;13.074;2023-09-30T15:02:24;20.00;99.90
20233;DHT22;37438;55.674;13.074;2023-09-30T15:05:30;19.60;99.90
20233;DHT22;37438;55.674;13.074;2023-09-30T15:08:35;19.00;99.90
20233;DHT22;37438;55.674;13.074;2023-09-30T15:11:40;18.60;99.90
20233;DHT22;37438;55.674;13.074;2023-09-30T15:14:44;18.40;99.90
20233;DHT22;37438;55.674;13.074;2023-09-30T15:17:49;18.30;99.90
20233;DHT22;37438;55.674;13.074;2023-09-30T15:20:53;18.20;99.90
20233;DHT22;37438;55.674;13.074;2023-09-30T15:23:57;17.80;99.90
20233;DHT22;37438;55.674;13.074;2023-09-30T15:27:03;18.90;99.90
20233;DHT22;37438;55.674;13.074;2023-09-30T15:30:08;19.20;99.90
20233;DHT22;37438;55.674;13.074;2023-09-30T15:33:14;19.40;99.90
20233;DHT22;37438;55.674;13.074;2023-09-30T15:36:18;19.50;99.90
20233;DHT22;37438;55.674;13.074;2023-09-30T15:39:22;19.40;99.90
20233;DHT22;37438;55.674;13.074;2023-09-30T15:42:27;19.10;99.90
20233;DHT22;37438;55.674;13.074;2023-09-30T15:45:31;19.20;99.90
20233;DHT22;37438;55.674;13.074;2023-09-30T15:48:38;18.50;99.90
20233;DHT22;37438;55.674;13.074;2023-09-30T15:51:42;18.80;99.90
20233;DHT22;37438;55.674;13.074;2023-09-30T15:54:47;18.50;99.90
20233;DHT22;37438;55.674;13.074;2023-09-30T15:57:54;18.30;99.90
20233;DHT22;37438;55.674;13.074;2023-09-30T16:00:59;18.00;99.90
20233;DHT22;37438;55.674;13.074;2023-09-30T16:04:04;17.90;99.90
20233;DHT22;37438;55.674;13.074;2023-09-30T16:07:09;17.80;99.90
20233;DHT22;37438;55.674;13.074;2023-09-30T16:10:15;17.70;99.90
20233;DHT22;37438;55.674;13.074;2023-09-30T16:13:19;17.60;99.90
20233;DHT22;37438;55.674;13.074;2023-09-30T16:16:23;17.50;99.90
20233;DHT22;37438;55.674;13.074;2023-09-30T16:19:28;17.40;99.90
20233;DHT22;37438;55.674;13.074;2023-09-30T16:22:32;17.40;99.90
20233;DHT22;37438;55.674;13.074;2023-09-30T16:25:37;17.30;99.90
20233;DHT22;37438;55.674;13.074;2023-09-30T16:28:41;17.20;99.90
20233;DHT22;37438;55.674;13.074;2023-09-30T16:31:45;17.20;99.90
20233;DHT22;37438;55.674;13.074;2023-09-30T16:34:50;17.20;99.90
20233;DHT22;37438;55.674;13.074;2023-09-30T16:37:55;17.20;99.90
20233;DHT22;37438;55.674;13.074;2023-09-30T16:40:59;17.10;99.90
20233;DHT22;37438;55.674;13.074;2023-09-30T16:44:06;17.10;99.90
20233;DHT22;37438;55.674;13.074;2023-09-30T16:47:10;17.00;99.90
20233;DHT22;37438;55.674;13.074;2023-09-30T16:50:15;17.00;99.90
20233;DHT22;37438;55.674;13.074;2023-09-30T16:53:19;17.00;99.90
20233;DHT22;37438;55.674;13.074;2023-09-30T16:56:24;17.00;99.90
20233;DHT22;37438;55.674;13.074;2023-09-30T16:59:30;16.90;99.90
20233;DHT22;37438;55.674;13.074;2023-09-30T17:02:36;16.90;99.90
20233;DHT22;37438;55.674;13.074;2023-09-30T17:05:42;16.90;99.90
20233;DHT22;37438;55.674;13.074;2023-09-30T17:08:47;16.80;99.90
20233;DHT22;37438;55.674;13.074;2023-09-30T17:11:51;16.80;99.90
20233;DHT22;37438;55.674;13.074;2023-09-30T17:14:55;16.70;99.90
20233;DHT22;37438;55.674;13.074;2023-09-30T17:18:00;16.70;99.90
20233;DHT22;37438;55.674;13.074;2023-09-30T17:21:04;16.60;99.90
20233;DHT22;37438;55.674;13.074;2023-09-30T17:24:08;16.60;99.90
20233;DHT22;37438;55.674;13.074;2023-09-30T17:27:12;16.60;99.90
20233;DHT22;37438;55.674;13.074;2023-09-30T17:30:17;16.70;99.90
20233;DHT22;37438;55.674;13.074;2023-09-30T17:33:41;16.60;99.90
20233;DHT22;37438;55.674;13.074;2023-09-30T17:36:46;16.50;99.90
20233;DHT22;37438;55.674;13.074;2023-09-30T17:39:52;16.50;99.90
20233;DHT22;37438;55.674;13.074;2023-09-30T17:42:57;16.50;99.90
20233;DHT22;37438;55.674;13.074;2023-09-30T17:49:13;16.50;99.90
20233;DHT22;37438;55.674;13.074;2023-09-30T17:52:17;16.40;99.90
20233;DHT22;37438;55.674;13.074;2023-09-30T17:55:21;16.40;99.90
20233;DHT22;37438;55.674;13.074;2023-09-30T17:58:26;16.40;99.90
20233;DHT22;37438;55.674;13.074;2023-09-30T18:01:31;16.30;99.90
20233;DHT22;37438;55.674;13.074;2023-09-30T18:04:35;16.30;99.90
20233;DHT22;37438;55.674;13.074;2023-09-30T18:07:46;16.30;99.90
20233;DHT22;37438;55.674;13.074;2023-09-30T18:10:50;16.30;99.90
20233;DHT22;37438;55.674;13.074;2023-09-30T18:13:54;16.30;99.90
20233;DHT22;37438;55.674;13.074;2023-09-30T18:16:59;16.30;99.90
20233;DHT22;37438;55.674;13.074;2023-09-30T18:20:04;16.30;99.90
20233;DHT22;37438;55.674;13.074;2023-09-30T18:23:09;16.30;99.90
20233;DHT22;37438;55.674;13.074;2023-09-30T18:26:13;16.20;99.90
20233;DHT22;37438;55.674;13.074;2023-09-30T18:29:18;16.20;99.90
20233;DHT22;37438;55.674;13.074;2023-09-30T18:32:22;16.20;99.90
20233;DHT22;37438;55.674;13.074;2023-09-30T18:35:26;16.10;99.90
20233;DHT22;37438;55.674;13.074;2023-09-30T18:38:31;16.20;99.90
20233;DHT22;37438;55.674;13.074;2023-09-30T18:41:35;16.10;99.90
20233;DHT22;37438;55.674;13.074;2023-09-30T18:44:39;16.10;99.90
20233;DHT22;37438;55.674;13.074;2023-09-30T18:47:43;16.10;99.90
20233;DHT22;37438;55.674;13.074;2023-09-30T18:50:49;16.10;99.90
20233;DHT22;37438;55.674;13.074;2023-09-30T18:53:57;16.10;99.90
20233;DHT22;37438;55.674;13.074;2023-09-30T18:57:01;16.00;99.90
20233;DHT22;37438;55.674;13.074;2023-09-30T19:00:05;16.00;99.90
20233;DHT22;37438;55.674;13.074;2023-09-30T19:03:10;16.10;99.90
20233;DHT22;37438;55.674;13.074;2023-09-30T19:06:15;16.00;99.90
20233;DHT22;37438;55.674;13.074;2023-09-30T19:09:19;15.90;99.90
20233;DHT22;37438;55.674;13.074;2023-09-30T19:12:23;16.00;99.90
20233;DHT22;37438;55.674;13.074;2023-09-30T19:15:27;16.00;99.90
20233;DHT22;37438;55.674;13.074;2023-09-30T19:18:31;16.10;99.90
20233;DHT22;37438;55.674;13.074;2023-09-30T19:21:35;16.10;99.90